sensor_id;sensor_type;location;lat;lon;timestamp;P1;durP1;ratioP1;P2;durP2;ratioP2
14377;SDS011;7272;53.668;9.578;2023-04-01T00:01:55;5.90;;;4.60;;
14377;SDS011;7272;53.668;9.578;2023-04-01T00:04:57;4.30;;;3.83;;
14377;SDS011;7272;53.668;9.578;2023-04-01T00:08:01;4.57;;;4.00;;
14377;SDS011;7272;53.668;9.578;2023-04-01T00:11:02;6.43;;;4.57;;
14377;SDS011;7272;53.668;9.578;2023-04-01T00:14:05;6.13;;;4.67;;
14377;SDS011;7272;53.668;9.578;2023-04-01T00:17:07;6.70;;;4.60;;
14377;SDS011;7272;53.668;9.578;2023-04-01T00:20:10;7.83;;;5.20;;
14377;SDS011;7272;53.668;9.578;2023-04-01T00:23:15;7.23;;;5.27;;
14377;SDS011;7272;53.668;9.578;2023-04-01T00:26:18;5.83;;;4.33;;
14377;SDS011;7272;53.668;9.578;2023-04-01T00:29:21;7.00;;;5.30;;
14377;SDS011;7272;53.668;9.578;2023-04-01T00:32:24;6.40;;;5.43;;
14377;SDS011;7272;53.668;9.578;2023-04-01T00:35:26;5.67;;;4.77;;
14377;SDS011;7272;53.668;9.578;2023-04-01T00:38:30;6.20;;;5.03;;
14377;SDS011;7272;53.668;9.578;2023-04-01T00:41:32;5.20;;;4.70;;
14377;SDS011;7272;53.668;9.578;2023-04-01T00:44:34;6.50;;;4.97;;
14377;SDS011;7272;53.668;9.578;2023-04-01T00:47:36;6.33;;;5.57;;
14377;SDS011;7272;53.668;9.578;2023-04-01T00:50:38;7.67;;;5.43;;
14377;SDS011;7272;53.668;9.578;2023-04-01T00:53:46;6.63;;;5.27;;
14377;SDS011;7272;53.668;9.578;2023-04-01T00:56:51;7.50;;;6.15;;
14377;SDS011;7272;53.668;9.578;2023-04-01T00:59:56;5.57;;;5.07;;
14377;SDS011;7272;53.668;9.578;2023-04-01T01:02:59;7.78;;;6.97;;
14377;SDS011;7272;53.668;9.578;2023-04-01T01:06:08;5.47;;;4.97;;
14377;SDS011;7272;53.668;9.578;2023-04-01T01:09:17;5.17;;;4.73;;
14377;SDS011;7272;53.668;9.578;2023-04-01T01:12:29;7.33;;;6.30;;
14377;SDS011;7272;53.668;9.578;2023-04-01T01:15:37;6.83;;;6.07;;
14377;SDS011;7272;53.668;9.578;2023-04-01T01:18:48;7.30;;;5.77;;
14377;SDS011;7272;53.668;9.578;2023-04-01T01:21:58;7.63;;;6.67;;
14377;SDS011;7272;53.668;9.578;2023-04-01T01:25:25;7.63;;;6.83;;
14377;SDS011;7272;53.668;9.578;2023-04-01T01:28:44;7.80;;;6.70;;
14377;SDS011;7272;53.668;9.578;2023-04-01T01:31:57;9.37;;;7.97;;
14377;SDS011;7272;53.668;9.578;2023-04-01T01:35:17;9.60;;;7.13;;
14377;SDS011;7272;53.668;9.578;2023-04-01T01:38:24;9.57;;;7.30;;
14377;SDS011;7272;53.668;9.578;2023-04-01T01:41:34;11.05;;;9.63;;
14377;SDS011;7272;53.668;9.578;2023-04-01T01:44:37;9.70;;;7.72;;
14377;SDS011;7272;53.668;9.578;2023-04-01T01:47:41;9.00;;;7.20;;
14377;SDS011;7272;53.668;9.578;2023-04-01T01:50:47;11.27;;;7.87;;
14377;SDS011;7272;53.668;9.578;2023-04-01T01:53:50;9.00;;;8.10;;
14377;SDS011;7272;53.668;9.578;2023-04-01T01:56:55;12.27;;;8.57;;
14377;SDS011;7272;53.668;9.578;2023-04-01T02:00:09;9.43;;;8.53;;
14377;SDS011;7272;53.668;9.578;2023-04-01T02:03:15;10.73;;;9.10;;
14377;SDS011;7272;53.668;9.578;2023-04-01T02:06:22;12.47;;;9.00;;
14377;SDS011;7272;53.668;9.578;2023-04-01T02:09:28;8.77;;;7.90;;
14377;SDS011;7272;53.668;9.578;2023-04-01T02:12:30;10.97;;;8.93;;
14377;SDS011;7272;53.668;9.578;2023-04-01T02:15:36;11.70;;;10.07;;
14377;SDS011;7272;53.668;9.578;2023-04-01T02:18:43;11.47;;;9.60;;
14377;SDS011;7272;53.668;9.578;2023-04-01T02:21:50;10.93;;;9.23;;
14377;SDS011;7272;53.668;9.578;2023-04-01T02:24:58;12.90;;;10.88;;
14377;SDS011;7272;53.668;9.578;2023-04-01T02:28:04;11.67;;;9.33;;
14377;SDS011;7272;53.668;9.578;2023-04-01T02:31:08;14.13;;;12.73;;
14377;SDS011;7272;53.668;9.578;2023-04-01T02:34:12;9.93;;;8.90;;
14377;SDS011;7272;53.668;9.578;2023-04-01T02:37:16;11.23;;;9.17;;
14377;SDS011;7272;53.668;9.578;2023-04-01T02:40:19;12.50;;;9.37;;
14377;SDS011;7272;53.668;9.578;2023-04-01T02:43:21;11.60;;;10.00;;
14377;SDS011;7272;53.668;9.578;2023-04-01T02:46:23;11.17;;;8.63;;
14377;SDS011;7272;53.668;9.578;2023-04-01T02:49:25;12.63;;;9.60;;
14377;SDS011;7272;53.668;9.578;2023-04-01T02:52:28;10.50;;;8.70;;
14377;SDS011;7272;53.668;9.578;2023-04-01T02:55:34;9.83;;;8.80;;
14377;SDS011;7272;53.668;9.578;2023-04-01T02:58:36;13.47;;;9.93;;
14377;SDS011;7272;53.668;9.578;2023-04-01T03:01:38;12.07;;;9.57;;
14377;SDS011;7272;53.668;9.578;2023-04-01T03:04:40;11.80;;;10.60;;
14377;SDS011;7272;53.668;9.578;2023-04-01T03:07:44;11.40;;;9.33;;
14377;SDS011;7272;53.668;9.578;2023-04-01T03:10:47;14.00;;;12.60;;
14377;SDS011;7272;53.668;9.578;2023-04-01T03:13:49;14.23;;;12.40;;
14377;SDS011;7272;53.668;9.578;2023-04-01T03:16:51;11.53;;;9.70;;
14377;SDS011;7272;53.668;9.578;2023-04-01T03:19:53;11.30;;;9.70;;
14377;SDS011;7272;53.668;9.578;2023-04-01T03:22:56;10.13;;;9.20;;
14377;SDS011;7272;53.668;9.578;2023-04-01T03:26:01;10.13;;;9.23;;
14377;SDS011;7272;53.668;9.578;2023-04-01T03:29:02;14.63;;;10.77;;
14377;SDS011;7272;53.668;9.578;2023-04-01T03:32:04;11.33;;;9.93;;
14377;SDS011;7272;53.668;9.578;2023-04-01T03:35:07;11.03;;;9.87;;
14377;SDS011;7272;53.668;9.578;2023-04-01T03:38:12;10.83;;;9.37;;
14377;SDS011;7272;53.668;9.578;2023-04-01T03:41:15;10.20;;;9.03;;
14377;SDS011;7272;53.668;9.578;2023-04-01T03:44:18;11.03;;;9.23;;
14377;SDS011;7272;53.668;9.578;2023-04-01T03:47:23;10.77;;;9.50;;
14377;SDS011;7272;53.668;9.578;2023-04-01T03:50:25;10.97;;;9.80;;
14377;SDS011;7272;53.668;9.578;2023-04-01T03:53:29;12.13;;;10.82;;
14377;SDS011;7272;53.668;9.578;2023-04-01T03:56:33;13.17;;;9.83;;
14377;SDS011;7272;53.668;9.578;2023-04-01T03:59:36;13.80;;;12.40;;
14377;SDS011;7272;53.668;9.578;2023-04-01T04:02:39;11.10;;;9.63;;
14377;SDS011;7272;53.668;9.578;2023-04-01T04:05:46;10.43;;;9.37;;
14377;SDS011;7272;53.668;9.578;2023-04-01T04:08:50;10.80;;;9.43;;
14377;SDS011;7272;53.668;9.578;2023-04-01T04:11:53;10.10;;;8.47;;
14377;SDS011;7272;53.668;9.578;2023-04-01T04:14:55;10.90;;;8.73;;
14377;SDS011;7272;53.668;9.578;2023-04-01T04:17:57;13.53;;;9.57;;
14377;SDS011;7272;53.668;9.578;2023-04-01T04:20:59;9.43;;;8.50;;
14377;SDS011;7272;53.668;9.578;2023-04-01T04:24:02;10.60;;;9.50;;
14377;SDS011;7272;53.668;9.578;2023-04-01T04:27:25;9.93;;;8.77;;
14377;SDS011;7272;53.668;9.578;2023-04-01T04:30:35;10.13;;;9.07;;
14377;SDS011;7272;53.668;9.578;2023-04-01T04:33:37;7.20;;;6.50;;
14377;SDS011;7272;53.668;9.578;2023-04-01T04:36:39;4.00;;;3.60;;
14377;SDS011;7272;53.668;9.578;2023-04-01T04:39:43;4.10;;;3.80;;
14377;SDS011;7272;53.668;9.578;2023-04-01T04:42:45;3.70;;;3.40;;
14377;SDS011;7272;53.668;9.578;2023-04-01T04:45:49;4.40;;;4.10;;
14377;SDS011;7272;53.668;9.578;2023-04-01T04:48:51;3.80;;;3.50;;
14377;SDS011;7272;53.668;9.578;2023-04-01T04:51:53;4.07;;;3.77;;
14377;SDS011;7272;53.668;9.578;2023-04-01T04:55:00;3.87;;;3.67;;
14377;SDS011;7272;53.668;9.578;2023-04-01T04:58:02;4.03;;;3.83;;
14377;SDS011;7272;53.668;9.578;2023-04-01T05:01:08;4.30;;;4.03;;
14377;SDS011;7272;53.668;9.578;2023-04-01T05:04:12;4.37;;;4.07;;
14377;SDS011;7272;53.668;9.578;2023-04-01T05:07:14;3.83;;;3.53;;
14377;SDS011;7272;53.668;9.578;2023-04-01T05:10:18;4.47;;;4.17;;
14377;SDS011;7272;53.668;9.578;2023-04-01T05:13:21;4.27;;;3.90;;
14377;SDS011;7272;53.668;9.578;2023-04-01T05:16:23;3.90;;;3.70;;
14377;SDS011;7272;53.668;9.578;2023-04-01T05:19:25;3.70;;;3.40;;
14377;SDS011;7272;53.668;9.578;2023-04-01T05:22:27;3.67;;;3.37;;
14377;SDS011;7272;53.668;9.578;2023-04-01T05:25:31;3.50;;;3.30;;
14377;SDS011;7272;53.668;9.578;2023-04-01T05:28:33;4.05;;;3.85;;
14377;SDS011;7272;53.668;9.578;2023-04-01T05:31:35;3.53;;;3.33;;
14377;SDS011;7272;53.668;9.578;2023-04-01T05:34:38;3.30;;;3.10;;
14377;SDS011;7272;53.668;9.578;2023-04-01T05:37:41;3.20;;;3.00;;
14377;SDS011;7272;53.668;9.578;2023-04-01T05:40:45;3.33;;;3.13;;
14377;SDS011;7272;53.668;9.578;2023-04-01T05:43:47;2.87;;;2.77;;
14377;SDS011;7272;53.668;9.578;2023-04-01T05:47:24;2.70;;;2.60;;
14377;SDS011;7272;53.668;9.578;2023-04-01T05:50:27;2.83;;;2.63;;
14377;SDS011;7272;53.668;9.578;2023-04-01T05:53:29;2.67;;;2.53;;
14377;SDS011;7272;53.668;9.578;2023-04-01T05:56:32;2.47;;;2.37;;
14377;SDS011;7272;53.668;9.578;2023-04-01T05:59:35;2.43;;;2.33;;
14377;SDS011;7272;53.668;9.578;2023-04-01T06:02:37;2.50;;;2.40;;
14377;SDS011;7272;53.668;9.578;2023-04-01T06:05:42;2.50;;;2.40;;
14377;SDS011;7272;53.668;9.578;2023-04-01T06:08:45;2.37;;;2.27;;
14377;SDS011;7272;53.668;9.578;2023-04-01T06:11:55;2.37;;;2.27;;
14377;SDS011;7272;53.668;9.578;2023-04-01T06:15:25;2.45;;;2.35;;
14377;SDS011;7272;53.668;9.578;2023-04-01T06:18:50;2.40;;;2.30;;
14377;SDS011;7272;53.668;9.578;2023-04-01T06:25:49;1.90;;;1.80;;
14377;SDS011;7272;53.668;9.578;2023-04-01T06:29:19;2.10;;;1.90;;
14377;SDS011;7272;53.668;9.578;2023-04-01T06:32:46;2.10;;;1.77;;
14377;SDS011;7272;53.668;9.578;2023-04-01T06:39:48;1.80;;;1.70;;
14377;SDS011;7272;53.668;9.578;2023-04-01T06:43:19;1.97;;;1.87;;
14377;SDS011;7272;53.668;9.578;2023-04-01T06:47:10;1.70;;;1.70;;
14377;SDS011;7272;53.668;9.578;2023-04-01T06:50:53;1.77;;;1.67;;
14377;SDS011;7272;53.668;9.578;2023-04-01T06:54:21;2.00;;;1.90;;
14377;SDS011;7272;53.668;9.578;2023-04-01T06:57:49;1.93;;;1.83;;
14377;SDS011;7272;53.668;9.578;2023-04-01T07:00:54;2.00;;;1.90;;
14377;SDS011;7272;53.668;9.578;2023-04-01T07:04:04;2.13;;;2.03;;
14377;SDS011;7272;53.668;9.578;2023-04-01T07:07:12;1.90;;;1.80;;
14377;SDS011;7272;53.668;9.578;2023-04-01T07:10:31;1.50;;;1.50;;
14377;SDS011;7272;53.668;9.578;2023-04-01T07:14:04;1.90;;;1.80;;
14377;SDS011;7272;53.668;9.578;2023-04-01T07:17:14;1.50;;;1.50;;
14377;SDS011;7272;53.668;9.578;2023-04-01T07:20:22;1.70;;;1.60;;
14377;SDS011;7272;53.668;9.578;2023-04-01T07:23:28;2.00;;;1.90;;
14377;SDS011;7272;53.668;9.578;2023-04-01T07:26:54;1.80;;;1.70;;
14377;SDS011;7272;53.668;9.578;2023-04-01T07:30:01;1.80;;;1.70;;
14377;SDS011;7272;53.668;9.578;2023-04-01T07:33:06;2.00;;;1.60;;
14377;SDS011;7272;53.668;9.578;2023-04-01T07:36:18;1.60;;;1.50;;
14377;SDS011;7272;53.668;9.578;2023-04-01T07:39:30;1.77;;;1.67;;
14377;SDS011;7272;53.668;9.578;2023-04-01T07:42:56;2.00;;;1.90;;
14377;SDS011;7272;53.668;9.578;2023-04-01T07:46:20;1.80;;;1.70;;
14377;SDS011;7272;53.668;9.578;2023-04-01T07:49:33;1.70;;;1.60;;
14377;SDS011;7272;53.668;9.578;2023-04-01T07:52:47;2.00;;;1.90;;
14377;SDS011;7272;53.668;9.578;2023-04-01T07:56:01;1.90;;;1.80;;
14377;SDS011;7272;53.668;9.578;2023-04-01T07:59:12;1.80;;;1.70;;
14377;SDS011;7272;53.668;9.578;2023-04-01T08:02:53;2.13;;;1.80;;
14377;SDS011;7272;53.668;9.578;2023-04-01T08:06:06;1.50;;;1.50;;
14377;SDS011;7272;53.668;9.578;2023-04-01T08:09:18;1.97;;;1.87;;
14377;SDS011;7272;53.668;9.578;2023-04-01T08:12:59;2.00;;;1.80;;
14377;SDS011;7272;53.668;9.578;2023-04-01T08:16:38;1.90;;;1.80;;
14377;SDS011;7272;53.668;9.578;2023-04-01T08:19:56;2.60;;;2.40;;
14377;SDS011;7272;53.668;9.578;2023-04-01T08:23:11;1.90;;;1.80;;
14377;SDS011;7272;53.668;9.578;2023-04-01T08:26:22;1.70;;;1.70;;
14377;SDS011;7272;53.668;9.578;2023-04-01T08:29:33;1.80;;;1.70;;
14377;SDS011;7272;53.668;9.578;2023-04-01T08:32:42;1.97;;;1.87;;
14377;SDS011;7272;53.668;9.578;2023-04-01T08:35:49;1.80;;;1.70;;
14377;SDS011;7272;53.668;9.578;2023-04-01T08:38:54;2.20;;;2.10;;
14377;SDS011;7272;53.668;9.578;2023-04-01T08:45:56;4.23;;;1.93;;
14377;SDS011;7272;53.668;9.578;2023-04-01T08:49:17;1.90;;;1.80;;
14377;SDS011;7272;53.668;9.578;2023-04-01T08:52:36;2.10;;;2.00;;
14377;SDS011;7272;53.668;9.578;2023-04-01T08:55:43;3.27;;;1.80;;
14377;SDS011;7272;53.668;9.578;2023-04-01T08:59:07;1.70;;;1.70;;
14377;SDS011;7272;53.668;9.578;2023-04-01T09:06:08;1.97;;;1.87;;
14377;SDS011;7272;53.668;9.578;2023-04-01T09:09:38;1.70;;;1.60;;
14377;SDS011;7272;53.668;9.578;2023-04-01T09:13:05;1.73;;;1.63;;
14377;SDS011;7272;53.668;9.578;2023-04-01T09:16:25;1.50;;;1.50;;
14377;SDS011;7272;53.668;9.578;2023-04-01T09:19:43;1.63;;;1.63;;
14377;SDS011;7272;53.668;9.578;2023-04-01T09:23:09;2.10;;;2.00;;
14377;SDS011;7272;53.668;9.578;2023-04-01T09:26:23;2.65;;;1.90;;
14377;SDS011;7272;53.668;9.578;2023-04-01T09:29:40;1.90;;;1.80;;
14377;SDS011;7272;53.668;9.578;2023-04-01T09:33:27;2.38;;;2.28;;
14377;SDS011;7272;53.668;9.578;2023-04-01T09:36:44;1.90;;;1.80;;
14377;SDS011;7272;53.668;9.578;2023-04-01T09:39:54;1.90;;;1.80;;
14377;SDS011;7272;53.668;9.578;2023-04-01T09:43:26;1.70;;;1.70;;
14377;SDS011;7272;53.668;9.578;2023-04-01T09:46:35;2.00;;;1.90;;
14377;SDS011;7272;53.668;9.578;2023-04-01T09:50:03;2.03;;;1.93;;
14377;SDS011;7272;53.668;9.578;2023-04-01T09:53:28;1.70;;;1.60;;
14377;SDS011;7272;53.668;9.578;2023-04-01T09:57:00;1.57;;;1.53;;
14377;SDS011;7272;53.668;9.578;2023-04-01T10:00:39;1.63;;;1.53;;
14377;SDS011;7272;53.668;9.578;2023-04-01T10:11:48;1.60;;;1.57;;
14377;SDS011;7272;53.668;9.578;2023-04-01T10:15:17;2.87;;;1.73;;
14377;SDS011;7272;53.668;9.578;2023-04-01T10:19:16;1.70;;;1.60;;
14377;SDS011;7272;53.668;9.578;2023-04-01T10:22:50;1.70;;;1.70;;
14377;SDS011;7272;53.668;9.578;2023-04-01T10:26:19;1.40;;;1.40;;
14377;SDS011;7272;53.668;9.578;2023-04-01T10:34:08;1.47;;;1.43;;
14377;SDS011;7272;53.668;9.578;2023-04-01T10:37:41;1.30;;;1.30;;
14377;SDS011;7272;53.668;9.578;2023-04-01T10:41:10;1.50;;;1.40;;
14377;SDS011;7272;53.668;9.578;2023-04-01T10:48:57;2.20;;;1.60;;
14377;SDS011;7272;53.668;9.578;2023-04-01T10:52:34;1.50;;;1.40;;
14377;SDS011;7272;53.668;9.578;2023-04-01T10:56:42;1.40;;;1.40;;
14377;SDS011;7272;53.668;9.578;2023-04-01T11:15:40;1.77;;;1.67;;
14377;SDS011;7272;53.668;9.578;2023-04-01T11:19:30;1.77;;;1.67;;
14377;SDS011;7272;53.668;9.578;2023-04-01T11:22:51;1.70;;;1.60;;
14377;SDS011;7272;53.668;9.578;2023-04-01T11:26:06;2.00;;;1.80;;
14377;SDS011;7272;53.668;9.578;2023-04-01T11:29:41;1.90;;;1.80;;
14377;SDS011;7272;53.668;9.578;2023-04-01T11:33:02;1.90;;;1.80;;
14377;SDS011;7272;53.668;9.578;2023-04-01T11:36:20;2.57;;;1.93;;
14377;SDS011;7272;53.668;9.578;2023-04-01T11:39:38;2.60;;;2.40;;
14377;SDS011;7272;53.668;9.578;2023-04-01T11:43:16;2.30;;;2.20;;
14377;SDS011;7272;53.668;9.578;2023-04-01T11:47:03;3.20;;;2.90;;
14377;SDS011;7272;53.668;9.578;2023-04-01T11:50:26;2.67;;;2.47;;
14377;SDS011;7272;53.668;9.578;2023-04-01T11:53:43;2.90;;;2.70;;
14377;SDS011;7272;53.668;9.578;2023-04-01T11:56:56;2.70;;;2.50;;
14377;SDS011;7272;53.668;9.578;2023-04-01T12:00:14;2.97;;;2.77;;
14377;SDS011;7272;53.668;9.578;2023-04-01T12:07:08;3.10;;;2.90;;
14377;SDS011;7272;53.668;9.578;2023-04-01T12:10:25;3.17;;;2.90;;
14377;SDS011;7272;53.668;9.578;2023-04-01T12:13:36;3.97;;;3.27;;
14377;SDS011;7272;53.668;9.578;2023-04-01T12:16:46;4.23;;;3.83;;
14377;SDS011;7272;53.668;9.578;2023-04-01T12:19:57;5.07;;;4.27;;
14377;SDS011;7272;53.668;9.578;2023-04-01T12:23:10;4.40;;;4.00;;
14377;SDS011;7272;53.668;9.578;2023-04-01T12:26:31;4.50;;;4.10;;
14377;SDS011;7272;53.668;9.578;2023-04-01T12:29:51;5.33;;;4.03;;
14377;SDS011;7272;53.668;9.578;2023-04-01T12:33:07;5.00;;;4.47;;
14377;SDS011;7272;53.668;9.578;2023-04-01T12:36:32;5.67;;;4.30;;
14377;SDS011;7272;53.668;9.578;2023-04-01T12:39:55;5.50;;;4.63;;
14377;SDS011;7272;53.668;9.578;2023-04-01T12:47:00;4.57;;;4.17;;
14377;SDS011;7272;53.668;9.578;2023-04-01T12:50:26;4.40;;;4.00;;
14377;SDS011;7272;53.668;9.578;2023-04-01T12:53:47;5.63;;;4.60;;
14377;SDS011;7272;53.668;9.578;2023-04-01T12:57:16;4.57;;;4.03;;
14377;SDS011;7272;53.668;9.578;2023-04-01T13:00:37;3.80;;;3.50;;
14377;SDS011;7272;53.668;9.578;2023-04-01T13:07:23;5.13;;;4.67;;
14377;SDS011;7272;53.668;9.578;2023-04-01T13:10:40;6.07;;;5.47;;
14377;SDS011;7272;53.668;9.578;2023-04-01T13:13:57;6.83;;;4.87;;
14377;SDS011;7272;53.668;9.578;2023-04-01T13:17:18;5.50;;;4.90;;
14377;SDS011;7272;53.668;9.578;2023-04-01T13:20:27;5.10;;;4.60;;
14377;SDS011;7272;53.668;9.578;2023-04-01T13:23:51;5.80;;;4.80;;
14377;SDS011;7272;53.668;9.578;2023-04-01T13:27:01;5.33;;;4.73;;
14377;SDS011;7272;53.668;9.578;2023-04-01T13:30:18;5.53;;;4.80;;
14377;SDS011;7272;53.668;9.578;2023-04-01T13:33:27;5.73;;;5.00;;
14377;SDS011;7272;53.668;9.578;2023-04-01T13:36:39;5.30;;;4.80;;
14377;SDS011;7272;53.668;9.578;2023-04-01T13:43:23;5.50;;;5.00;;
14377;SDS011;7272;53.668;9.578;2023-04-01T13:46:38;4.97;;;4.47;;
14377;SDS011;7272;53.668;9.578;2023-04-01T13:49:57;5.23;;;4.30;;
14377;SDS011;7272;53.668;9.578;2023-04-01T13:56:59;5.27;;;4.43;;
14377;SDS011;7272;53.668;9.578;2023-04-01T14:03:40;7.23;;;4.73;;
14377;SDS011;7272;53.668;9.578;2023-04-01T14:06:54;4.70;;;4.30;;
14377;SDS011;7272;53.668;9.578;2023-04-01T14:10:05;4.77;;;4.23;;
14377;SDS011;7272;53.668;9.578;2023-04-01T14:13:15;6.23;;;4.50;;
14377;SDS011;7272;53.668;9.578;2023-04-01T14:23:30;4.57;;;4.17;;
14377;SDS011;7272;53.668;9.578;2023-04-01T14:30:33;5.47;;;4.37;;
14377;SDS011;7272;53.668;9.578;2023-04-01T14:33:46;6.33;;;4.47;;
14377;SDS011;7272;53.668;9.578;2023-04-01T14:37:03;5.97;;;5.00;;
14377;SDS011;7272;53.668;9.578;2023-04-01T14:40:34;4.57;;;4.10;;
14377;SDS011;7272;53.668;9.578;2023-04-01T14:47:28;4.63;;;4.20;;
14377;SDS011;7272;53.668;9.578;2023-04-01T14:50:44;5.20;;;4.70;;
14377;SDS011;7272;53.668;9.578;2023-04-01T14:53:53;5.70;;;4.73;;
14377;SDS011;7272;53.668;9.578;2023-04-01T14:57:10;7.43;;;4.40;;
14377;SDS011;7272;53.668;9.578;2023-04-01T15:00:14;5.43;;;4.57;;
14377;SDS011;7272;53.668;9.578;2023-04-01T15:03:20;5.30;;;4.40;;
14377;SDS011;7272;53.668;9.578;2023-04-01T15:06:40;4.73;;;4.23;;
14377;SDS011;7272;53.668;9.578;2023-04-01T15:09:56;6.47;;;4.53;;
14377;SDS011;7272;53.668;9.578;2023-04-01T15:13:05;6.57;;;4.40;;
14377;SDS011;7272;53.668;9.578;2023-04-01T15:16:17;5.10;;;4.60;;
14377;SDS011;7272;53.668;9.578;2023-04-01T15:19:30;4.63;;;4.23;;
14377;SDS011;7272;53.668;9.578;2023-04-01T15:22:42;6.27;;;4.77;;
14377;SDS011;7272;53.668;9.578;2023-04-01T15:26:10;5.80;;;4.17;;
14377;SDS011;7272;53.668;9.578;2023-04-01T15:29:34;6.10;;;5.50;;
14377;SDS011;7272;53.668;9.578;2023-04-01T15:32:50;6.00;;;5.40;;
14377;SDS011;7272;53.668;9.578;2023-04-01T15:36:04;6.47;;;4.83;;
14377;SDS011;7272;53.668;9.578;2023-04-01T15:39:17;5.40;;;4.67;;
14377;SDS011;7272;53.668;9.578;2023-04-01T15:42:35;5.40;;;4.70;;
14377;SDS011;7272;53.668;9.578;2023-04-01T15:45:51;6.23;;;4.80;;
14377;SDS011;7272;53.668;9.578;2023-04-01T15:49:14;7.47;;;5.30;;
14377;SDS011;7272;53.668;9.578;2023-04-01T15:52:24;6.23;;;4.67;;
14377;SDS011;7272;53.668;9.578;2023-04-01T15:55:44;8.17;;;5.00;;
14377;SDS011;7272;53.668;9.578;2023-04-01T15:58:54;4.33;;;3.93;;
14377;SDS011;7272;53.668;9.578;2023-04-01T16:02:07;5.40;;;4.47;;
14377;SDS011;7272;53.668;9.578;2023-04-01T16:05:27;5.37;;;4.70;;
14377;SDS011;7272;53.668;9.578;2023-04-01T16:08:42;7.07;;;4.70;;
14377;SDS011;7272;53.668;9.578;2023-04-01T16:12:04;6.20;;;4.77;;
14377;SDS011;7272;53.668;9.578;2023-04-01T16:15:22;5.53;;;4.57;;
14377;SDS011;7272;53.668;9.578;2023-04-01T16:18:35;8.83;;;5.07;;
14377;SDS011;7272;53.668;9.578;2023-04-01T16:21:50;6.13;;;4.80;;
14377;SDS011;7272;53.668;9.578;2023-04-01T16:25:01;6.10;;;5.50;;
14377;SDS011;7272;53.668;9.578;2023-04-01T16:28:24;7.27;;;4.87;;
14377;SDS011;7272;53.668;9.578;2023-04-01T16:31:34;5.23;;;4.73;;
14377;SDS011;7272;53.668;9.578;2023-04-01T16:34:47;7.97;;;4.50;;
14377;SDS011;7272;53.668;9.578;2023-04-01T16:38:00;5.80;;;5.07;;
14377;SDS011;7272;53.668;9.578;2023-04-01T16:41:11;5.60;;;4.37;;
14377;SDS011;7272;53.668;9.578;2023-04-01T16:44:18;8.70;;;4.90;;
14377;SDS011;7272;53.668;9.578;2023-04-01T16:47:26;7.63;;;4.70;;
14377;SDS011;7272;53.668;9.578;2023-04-01T16:50:39;6.57;;;4.60;;
14377;SDS011;7272;53.668;9.578;2023-04-01T16:53:47;7.30;;;4.63;;
14377;SDS011;7272;53.668;9.578;2023-04-01T16:56:53;8.27;;;4.90;;
14377;SDS011;7272;53.668;9.578;2023-04-01T16:59:58;6.23;;;4.43;;
14377;SDS011;7272;53.668;9.578;2023-04-01T17:03:10;8.10;;;4.27;;
14377;SDS011;7272;53.668;9.578;2023-04-01T17:06:19;6.03;;;4.20;;
14377;SDS011;7272;53.668;9.578;2023-04-01T17:09:32;5.70;;;4.43;;
14377;SDS011;7272;53.668;9.578;2023-04-01T17:12:44;8.17;;;4.80;;
14377;SDS011;7272;53.668;9.578;2023-04-01T17:15:53;6.60;;;4.70;;
14377;SDS011;7272;53.668;9.578;2023-04-01T17:19:08;6.03;;;4.87;;
14377;SDS011;7272;53.668;9.578;2023-04-01T17:22:23;6.50;;;4.43;;
14377;SDS011;7272;53.668;9.578;2023-04-01T17:25:35;4.83;;;4.33;;
14377;SDS011;7272;53.668;9.578;2023-04-01T17:28:46;4.97;;;4.40;;
14377;SDS011;7272;53.668;9.578;2023-04-01T17:31:53;5.47;;;4.45;;
14377;SDS011;7272;53.668;9.578;2023-04-01T17:35:06;8.37;;;4.07;;
14377;SDS011;7272;53.668;9.578;2023-04-01T17:38:17;4.10;;;3.77;;
14377;SDS011;7272;53.668;9.578;2023-04-01T17:41:28;4.80;;;3.47;;
14377;SDS011;7272;53.668;9.578;2023-04-01T17:44:41;3.70;;;3.40;;
14377;SDS011;7272;53.668;9.578;2023-04-01T17:47:52;4.17;;;3.77;;
14377;SDS011;7272;53.668;9.578;2023-04-01T17:51:11;4.23;;;3.00;;
14377;SDS011;7272;53.668;9.578;2023-04-01T17:54:23;3.67;;;3.37;;
14377;SDS011;7272;53.668;9.578;2023-04-01T17:57:33;4.87;;;4.30;;
14377;SDS011;7272;53.668;9.578;2023-04-01T18:00:50;4.63;;;3.03;;
14377;SDS011;7272;53.668;9.578;2023-04-01T18:04:09;4.70;;;2.97;;
14377;SDS011;7272;53.668;9.578;2023-04-01T18:11:00;4.47;;;3.40;;
14377;SDS011;7272;53.668;9.578;2023-04-01T18:14:19;3.10;;;2.80;;
14377;SDS011;7272;53.668;9.578;2023-04-01T18:17:44;4.13;;;3.20;;
14377;SDS011;7272;53.668;9.578;2023-04-01T18:20:58;5.33;;;3.20;;
14377;SDS011;7272;53.668;9.578;2023-04-01T18:24:10;4.17;;;3.43;;
14377;SDS011;7272;53.668;9.578;2023-04-01T18:27:22;4.40;;;3.33;;
14377;SDS011;7272;53.668;9.578;2023-04-01T18:30:30;4.53;;;3.53;;
14377;SDS011;7272;53.668;9.578;2023-04-01T18:33:41;8.97;;;8.07;;
14377;SDS011;7272;53.668;9.578;2023-04-01T18:36:50;7.60;;;3.90;;
14377;SDS011;7272;53.668;9.578;2023-04-01T18:39:59;3.47;;;3.13;;
14377;SDS011;7272;53.668;9.578;2023-04-01T18:43:14;3.60;;;2.93;;
14377;SDS011;7272;53.668;9.578;2023-04-01T18:46:25;5.67;;;2.87;;
14377;SDS011;7272;53.668;9.578;2023-04-01T18:49:33;3.13;;;2.83;;
14377;SDS011;7272;53.668;9.578;2023-04-01T18:52:44;3.87;;;3.23;;
14377;SDS011;7272;53.668;9.578;2023-04-01T18:55:52;2.90;;;2.60;;
14377;SDS011;7272;53.668;9.578;2023-04-01T18:58:59;3.87;;;3.00;;
14377;SDS011;7272;53.668;9.578;2023-04-01T19:02:08;3.67;;;2.70;;
14377;SDS011;7272;53.668;9.578;2023-04-01T19:05:23;3.03;;;2.73;;
14377;SDS011;7272;53.668;9.578;2023-04-01T19:08:33;4.33;;;2.80;;
14377;SDS011;7272;53.668;9.578;2023-04-01T19:11:38;3.60;;;3.30;;
14377;SDS011;7272;53.668;9.578;2023-04-01T19:14:56;3.77;;;3.23;;
14377;SDS011;7272;53.668;9.578;2023-04-01T19:21:52;3.53;;;3.07;;
14377;SDS011;7272;53.668;9.578;2023-04-01T19:25:02;3.80;;;3.13;;
14377;SDS011;7272;53.668;9.578;2023-04-01T19:28:22;4.03;;;3.00;;
14377;SDS011;7272;53.668;9.578;2023-04-01T19:31:38;3.27;;;2.70;;
14377;SDS011;7272;53.668;9.578;2023-04-01T19:34:53;3.23;;;2.90;;
14377;SDS011;7272;53.668;9.578;2023-04-01T19:38:02;3.73;;;2.83;;
14377;SDS011;7272;53.668;9.578;2023-04-01T19:41:15;5.63;;;3.10;;
14377;SDS011;7272;53.668;9.578;2023-04-01T19:44:34;3.97;;;3.03;;
14377;SDS011;7272;53.668;9.578;2023-04-01T19:47:51;3.40;;;2.97;;
14377;SDS011;7272;53.668;9.578;2023-04-01T19:51:03;3.90;;;3.20;;
14377;SDS011;7272;53.668;9.578;2023-04-01T19:54:13;3.30;;;3.00;;
14377;SDS011;7272;53.668;9.578;2023-04-01T19:57:24;3.00;;;2.60;;
14377;SDS011;7272;53.668;9.578;2023-04-01T20:00:34;3.20;;;2.90;;
14377;SDS011;7272;53.668;9.578;2023-04-01T20:03:41;4.93;;;2.67;;
14377;SDS011;7272;53.668;9.578;2023-04-01T20:06:47;4.47;;;3.00;;
14377;SDS011;7272;53.668;9.578;2023-04-01T20:09:55;3.58;;;2.42;;
14377;SDS011;7272;53.668;9.578;2023-04-01T20:13:05;4.40;;;2.83;;
14377;SDS011;7272;53.668;9.578;2023-04-01T20:16:14;3.40;;;2.77;;
14377;SDS011;7272;53.668;9.578;2023-04-01T20:19:21;3.80;;;2.73;;
14377;SDS011;7272;53.668;9.578;2023-04-01T20:22:35;3.23;;;2.60;;
14377;SDS011;7272;53.668;9.578;2023-04-01T20:25:55;4.77;;;2.80;;
14377;SDS011;7272;53.668;9.578;2023-04-01T20:32:53;3.93;;;2.50;;
14377;SDS011;7272;53.668;9.578;2023-04-01T20:36:10;3.17;;;2.40;;
14377;SDS011;7272;53.668;9.578;2023-04-01T20:39:27;2.97;;;2.40;;
14377;SDS011;7272;53.668;9.578;2023-04-01T20:42:46;3.27;;;2.70;;
14377;SDS011;7272;53.668;9.578;2023-04-01T20:45:58;3.63;;;2.50;;
14377;SDS011;7272;53.668;9.578;2023-04-01T20:49:19;4.87;;;2.60;;
14377;SDS011;7272;53.668;9.578;2023-04-01T20:52:32;3.30;;;2.87;;
14377;SDS011;7272;53.668;9.578;2023-04-01T20:59:23;3.23;;;2.77;;
14377;SDS011;7272;53.668;9.578;2023-04-01T21:02:44;4.60;;;3.17;;
14377;SDS011;7272;53.668;9.578;2023-04-01T21:06:01;3.40;;;2.57;;
14377;SDS011;7272;53.668;9.578;2023-04-01T21:09:23;4.47;;;2.77;;
14377;SDS011;7272;53.668;9.578;2023-04-01T21:12:41;4.17;;;2.40;;
14377;SDS011;7272;53.668;9.578;2023-04-01T21:15:52;4.10;;;2.67;;
14377;SDS011;7272;53.668;9.578;2023-04-01T21:19:08;3.80;;;2.50;;